createdAt,value
2018-12-05T00:03:40.597Z,0.50
2018-12-05T00:06:11.404Z,0.40
2018-12-05T00:08:44.259Z,0.50
2018-12-05T00:11:15.196Z,0.50
2018-12-05T00:13:46.296Z,0.50
2018-12-05T00:16:18.031Z,0.50
2018-12-05T00:18:48.955Z,0.50
2018-12-05T00:21:19.824Z,0.50
2018-12-05T00:23:50.795Z,0.50
2018-12-05T00:26:21.762Z,0.60
2018-12-05T00:28:52.820Z,0.70
2018-12-05T00:31:23.689Z,0.80
2018-12-05T00:33:54.619Z,0.70
2018-12-05T00:36:28.063Z,0.70
2018-12-05T00:38:59.343Z,0.60
2018-12-05T00:41:30.392Z,0.70
2018-12-05T00:44:03.944Z,0.70
2018-12-05T00:46:34.980Z,0.70
2018-12-05T00:49:05.942Z,0.70
2018-12-05T00:51:37.713Z,0.70
2018-12-05T00:54:08.616Z,0.70
2018-12-05T00:56:39.555Z,0.70
2018-12-05T00:59:11.392Z,0.80
2018-12-05T01:01:42.423Z,0.80
2018-12-05T01:04:13.204Z,0.70
2018-12-05T01:06:44.991Z,0.70
2018-12-05T01:09:16.889Z,0.70
2018-12-05T01:11:48.611Z,0.70
2018-12-05T01:14:20.373Z,0.70
2018-12-05T01:16:51.269Z,0.80
2018-12-05T01:19:22.347Z,0.80
2018-12-05T01:21:53.248Z,0.70
2018-12-05T01:24:24.144Z,0.70
2018-12-05T01:26:55.079Z,0.70
2018-12-05T01:29:26.300Z,0.60
2018-12-05T01:31:58.139Z,0.60
2018-12-05T01:34:29.827Z,0.60
2018-12-05T01:37:00.790Z,0.50
2018-12-05T01:39:34.392Z,0.50
2018-12-05T01:42:05.933Z,0.40
2018-12-05T01:44:37.543Z,0.40
2018-12-05T01:47:09.171Z,0.40
2018-12-05T01:49:40.468Z,0.40
2018-12-05T01:52:12.159Z,0.30
2018-12-05T01:54:45.738Z,0.40
2018-12-05T01:57:16.959Z,0.40
2018-12-05T01:59:47.858Z,0.40
2018-12-05T02:02:18.831Z,0.40
2018-12-05T02:04:50.527Z,0.50
2018-12-05T02:07:24.060Z,0.60
2018-12-05T02:09:55.175Z,0.50
2018-12-05T02:12:26.861Z,0.40
2018-12-05T02:14:57.808Z,0.30
2018-12-05T02:17:29.537Z,0.20
2018-12-05T02:20:01.275Z,0.30
2018-12-05T02:22:35.529Z,0.30
2018-12-05T02:25:07.112Z,0.30
2018-12-05T02:27:38.429Z,0.20
2018-12-05T02:30:09.748Z,0.10
2018-12-05T02:32:39.443Z,0.00
2018-12-05T02:35:11.251Z,0.00
2018-12-05T02:37:45.449Z,0.00
2018-12-05T02:40:19.095Z,0.00
2018-12-05T02:42:50.472Z,0.10
2018-12-05T02:45:22.332Z,0.00
2018-12-05T02:50:22.768Z,-0.30
2018-12-05T02:52:53.853Z,-0.40
2018-12-05T02:55:24.775Z,-0.50
2018-12-05T02:57:55.746Z,-0.40
2018-12-05T03:00:27.601Z,-0.50
2018-12-05T03:02:59.416Z,-0.60
2018-12-05T03:05:33.042Z,-0.60
2018-12-05T03:08:02.299Z,-0.50
2018-12-05T03:10:33.503Z,-0.70
2018-12-05T03:13:05.192Z,-0.70
2018-12-05T03:15:36.151Z,-0.80
2018-12-05T03:18:07.044Z,-0.80
2018-12-05T03:20:37.878Z,-0.80
2018-12-05T03:23:08.888Z,-0.80
2018-12-05T03:25:39.657Z,-0.70
2018-12-05T03:28:11.377Z,-0.80
2018-12-05T03:30:43.066Z,-0.80
2018-12-05T03:33:14.026Z,-0.70
2018-12-05T03:35:43.872Z,-0.60
2018-12-05T03:38:15.527Z,-0.60
2018-12-05T03:40:46.849Z,-0.60
2018-12-05T03:43:18.504Z,-0.60
2018-12-05T03:45:49.502Z,-0.60
2018-12-05T03:48:20.502Z,-0.60
2018-12-05T03:50:53.882Z,-0.60
2018-12-05T03:53:25.175Z,-0.60
2018-12-05T03:55:57.092Z,-0.70
2018-12-05T03:58:28.870Z,-0.60
2018-12-05T04:01:00.503Z,-0.60
2018-12-05T04:03:32.239Z,-0.70
2018-12-05T04:06:03.215Z,-0.60
2018-12-05T04:08:34.972Z,-0.60
2018-12-05T04:11:06.730Z,-0.60
2018-12-05T04:13:40.137Z,-0.60
2018-12-05T04:16:11.431Z,-0.60
2018-12-05T04:18:43.241Z,-0.60
2018-12-05T04:21:14.125Z,-0.50
2018-12-05T04:23:44.936Z,-0.50
2018-12-05T04:26:15.764Z,-0.50
2018-12-05T04:28:47.484Z,-0.50
2018-12-05T04:31:18.505Z,-0.50
2018-12-05T04:33:49.372Z,-0.50
2018-12-05T04:36:20.242Z,-0.60
2018-12-05T04:38:51.267Z,-0.60
2018-12-05T04:41:22.205Z,-0.50
2018-12-05T04:43:53.053Z,-0.50
2018-12-05T04:46:24.718Z,-0.60
2018-12-05T04:58:56.290Z,-0.60
2018-12-05T05:01:27.092Z,-0.50
2018-12-05T05:03:58.147Z,-0.50
2018-12-05T05:06:29.639Z,-0.50
2018-12-05T05:09:00.635Z,-0.50
2018-12-05T05:11:32.184Z,-0.50
2018-12-05T05:14:03.388Z,-0.50
2018-12-05T05:16:35.031Z,-0.50
2018-12-05T05:19:05.971Z,-0.40
2018-12-05T05:21:37.661Z,-0.40
2018-12-05T05:24:09.433Z,-0.40
2018-12-05T05:26:40.256Z,-0.40
2018-12-05T05:29:15.899Z,-0.50
2018-12-05T05:31:46.796Z,-0.40
2018-12-05T05:34:17.759Z,-0.50
2018-12-05T05:36:49.148Z,-0.50
2018-12-05T05:39:20.842Z,-0.50
2018-12-05T05:41:54.192Z,-0.60
2018-12-05T05:44:23.712Z,-0.70
2018-12-05T05:46:55.513Z,-0.80
2018-12-05T05:49:26.424Z,-0.80
2018-12-05T05:51:58.247Z,-0.40
2018-12-05T05:54:29.147Z,-0.60
2018-12-05T05:56:59.899Z,-0.80
2018-12-05T06:02:03.469Z,-0.60
2018-12-05T06:04:33.360Z,-0.60
2018-12-05T06:07:05.399Z,-0.60
2018-12-05T06:09:37.347Z,-0.70
2018-12-05T06:12:07.532Z,-0.60
2018-12-05T06:14:39.316Z,-0.50
2018-12-05T06:17:10.985Z,-0.50
2018-12-05T06:19:42.920Z,-0.50
2018-12-05T06:22:14.812Z,-0.50
2018-12-05T06:24:46.168Z,-0.50
2018-12-05T06:27:16.911Z,-0.50
2018-12-05T06:29:47.992Z,-0.40
2018-12-05T06:32:19.767Z,-0.40
2018-12-05T06:34:50.879Z,-0.30
2018-12-05T06:37:22.749Z,-0.40
2018-12-05T06:39:53.851Z,-0.50
2018-12-05T06:42:25.659Z,-0.50
2018-12-05T06:44:57.476Z,-0.50
2018-12-05T06:47:29.352Z,-0.40
2018-12-05T06:50:01.355Z,-0.30
2018-12-05T06:52:32.691Z,-0.30
2018-12-05T06:55:04.635Z,-0.30
2018-12-05T06:57:35.790Z,-0.20
2018-12-05T07:03:11.491Z,-0.20
2018-12-05T07:05:43.083Z,-0.10
2018-12-05T07:08:14.228Z,0.00
2018-12-05T07:10:46.127Z,-0.10
2018-12-05T07:13:20.548Z,0.00
2018-12-05T07:15:51.691Z,-0.10
2018-12-05T07:18:25.542Z,-0.10
2018-12-05T07:20:56.509Z,0.00
2018-12-05T07:23:29.988Z,0.00
2018-12-05T07:26:01.709Z,0.10
2018-12-05T07:28:32.948Z,0.10
2018-12-05T07:31:04.871Z,0.20
2018-12-05T07:33:36.555Z,0.20
2018-12-05T07:36:12.372Z,0.20
2018-12-05T07:38:43.464Z,0.30
2018-12-05T07:41:14.757Z,0.20
2018-12-05T07:43:46.406Z,0.30
2018-12-05T07:46:18.276Z,0.30
2018-12-05T07:48:50.034Z,0.30
2018-12-05T07:51:21.965Z,0.30
2018-12-05T07:53:53.552Z,0.40
2018-12-05T07:56:25.472Z,0.40
2018-12-05T07:58:57.110Z,0.50
2018-12-05T08:01:28.000Z,0.50
2018-12-05T08:04:01.445Z,0.50
2018-12-05T08:06:32.668Z,0.60
2018-12-05T08:09:07.757Z,0.60
2018-12-05T08:11:39.251Z,0.70
2018-12-05T08:14:10.896Z,0.70
2018-12-05T08:16:41.731Z,0.80
2018-12-05T08:19:12.699Z,0.80
2018-12-05T08:21:46.132Z,0.80
2018-12-05T08:24:17.316Z,0.90
2018-12-05T08:26:48.897Z,1.00
2018-12-05T08:29:19.826Z,1.00
2018-12-05T08:31:53.968Z,1.20
2018-12-05T08:34:24.828Z,1.40
2018-12-05T08:36:55.535Z,1.60
2018-12-05T08:39:26.227Z,1.60
2018-12-05T08:42:00.652Z,1.70
2018-12-05T08:44:31.985Z,1.70
2018-12-05T08:47:02.898Z,1.70
2018-12-05T08:49:33.979Z,1.80
2018-12-05T08:52:05.699Z,1.80
2018-12-05T08:54:37.238Z,1.90
2018-12-05T08:57:08.040Z,2.00
2018-12-05T08:59:39.846Z,2.10
2018-12-05T09:02:11.536Z,2.20
2018-12-05T09:04:42.592Z,2.10
2018-12-05T09:07:13.441Z,2.00
2018-12-05T09:09:45.096Z,2.00
2018-12-05T09:12:18.621Z,2.10
2018-12-05T09:14:49.783Z,2.30
2018-12-05T09:17:21.037Z,2.30
2018-12-05T09:19:52.616Z,2.20
2018-12-05T09:22:23.509Z,2.30
2018-12-05T09:24:55.116Z,2.40
2018-12-05T09:27:26.060Z,2.30
2018-12-05T09:29:57.719Z,2.40
2018-12-05T09:32:29.465Z,2.50
2018-12-05T09:35:00.499Z,2.60
2018-12-05T09:37:32.170Z,2.70
2018-12-05T09:40:03.728Z,2.80
2018-12-05T09:42:34.903Z,2.90
2018-12-05T09:45:14.889Z,2.90
2018-12-05T09:47:46.841Z,3.00
2018-12-05T09:50:16.600Z,3.00
2018-12-05T09:52:47.570Z,3.20
2018-12-05T09:55:20.939Z,3.20
2018-12-05T09:57:52.239Z,3.40
2018-12-05T10:00:23.017Z,3.50
2018-12-05T10:02:52.751Z,3.60
2018-12-05T10:05:24.516Z,3.80
2018-12-05T10:07:55.502Z,3.70
2018-12-05T10:10:26.500Z,3.60
2018-12-05T10:12:57.396Z,3.60
2018-12-05T10:15:28.463Z,3.70
2018-12-05T10:17:59.260Z,3.70
2018-12-05T10:20:30.227Z,3.80
2018-12-05T10:23:01.095Z,3.80
2018-12-05T10:25:32.029Z,3.80
2018-12-05T10:28:04.353Z,3.90
2018-12-05T10:30:35.624Z,3.90
2018-12-05T10:33:07.506Z,3.90
2018-12-05T10:35:39.512Z,4.00
2018-12-05T10:38:10.917Z,4.10
2018-12-05T10:40:44.492Z,3.90
2018-12-05T10:43:15.466Z,4.00
2018-12-05T10:45:46.555Z,4.10
2018-12-05T10:48:20.459Z,4.20
2018-12-05T10:50:52.161Z,4.20
2018-12-05T10:53:22.971Z,4.20
2018-12-05T10:55:53.987Z,4.40
2018-12-05T11:01:32.486Z,4.60
2018-12-05T11:04:08.614Z,4.50
2018-12-05T11:06:45.707Z,4.50
2018-12-05T11:09:29.788Z,4.60
2018-12-05T11:12:06.531Z,4.60
2018-12-05T11:14:43.355Z,4.50
2018-12-05T11:17:20.163Z,4.70
2018-12-05T11:19:58.778Z,4.70
2018-12-05T11:22:35.859Z,4.60
2018-12-05T11:25:12.572Z,4.80
2018-12-05T11:27:44.193Z,4.80
2018-12-05T11:30:16.119Z,4.80
2018-12-05T11:32:47.627Z,4.90
2018-12-05T11:35:19.504Z,4.80
2018-12-05T11:37:51.244Z,4.80
2018-12-05T11:40:22.971Z,5.00
2018-12-05T11:42:54.779Z,4.80
2018-12-05T11:45:26.055Z,4.90
2018-12-05T11:47:57.722Z,4.80
2018-12-05T11:50:31.069Z,4.80
2018-12-05T11:53:02.440Z,4.80
2018-12-05T11:55:32.172Z,5.00
2018-12-05T11:58:03.438Z,5.00
2018-12-05T12:00:37.609Z,5.10
2018-12-05T12:03:08.940Z,5.20
2018-12-05T12:05:40.944Z,5.20
2018-12-05T12:08:11.935Z,5.10
2018-12-05T12:10:43.640Z,5.10
2018-12-05T12:13:14.716Z,5.10
2018-12-05T12:15:46.599Z,5.10
2018-12-05T12:18:18.172Z,5.00
2018-12-05T12:20:49.196Z,5.10
2018-12-05T12:23:20.979Z,5.30
2018-12-05T12:25:52.718Z,5.30
2018-12-05T12:28:23.544Z,5.30
2018-12-05T12:30:54.461Z,5.10
2018-12-05T12:33:25.332Z,5.10
2018-12-05T12:35:59.638Z,5.20
2018-12-05T12:38:33.852Z,5.10
2018-12-05T12:41:05.601Z,5.20
2018-12-05T12:43:37.269Z,5.20
2018-12-05T12:46:08.963Z,5.20
2018-12-05T12:48:40.009Z,5.30
2018-12-05T12:51:11.859Z,5.20
2018-12-05T12:53:42.677Z,5.10
2018-12-05T12:56:13.623Z,5.10
2018-12-05T12:58:45.447Z,5.30
2018-12-05T13:01:16.282Z,5.30
2018-12-05T13:03:47.100Z,5.20
2018-12-05T13:06:18.822Z,5.20
2018-12-05T13:08:50.647Z,5.20
2018-12-05T13:11:22.348Z,5.20
2018-12-05T13:13:54.063Z,5.30
2018-12-05T13:16:25.060Z,5.30
2018-12-05T13:18:58.460Z,5.10
2018-12-05T13:21:32.145Z,5.30
2018-12-05T13:24:03.644Z,5.30
2018-12-05T13:26:35.324Z,5.30
2018-12-05T13:29:06.449Z,5.40
2018-12-05T13:31:38.112Z,5.40
2018-12-05T13:34:09.733Z,5.50
2018-12-05T13:36:41.680Z,5.50
2018-12-05T13:39:13.296Z,5.60
2018-12-05T13:41:46.916Z,5.70
2018-12-05T13:44:18.198Z,5.80
2018-12-05T13:46:47.803Z,5.60
2018-12-05T13:49:18.956Z,5.60
2018-12-05T13:51:50.471Z,5.90
2018-12-05T13:54:22.368Z,5.80
2018-12-05T13:56:54.187Z,5.70
2018-12-05T13:59:25.864Z,5.80
2018-12-05T14:01:57.044Z,5.80
2018-12-05T14:04:28.720Z,5.70
2018-12-05T14:07:00.443Z,5.70
2018-12-05T14:09:31.421Z,5.80
2018-12-05T14:12:02.344Z,5.90
2018-12-05T14:14:34.263Z,5.90
2018-12-05T14:17:06.111Z,5.70
2018-12-05T14:19:37.003Z,5.60
2018-12-05T14:22:07.841Z,5.60
2018-12-05T14:24:38.780Z,5.40
2018-12-05T14:27:09.824Z,5.30
2018-12-05T14:29:41.488Z,5.30
2018-12-05T14:32:13.115Z,5.30
2018-12-05T14:34:44.191Z,5.20
2018-12-05T14:37:16.147Z,5.20
2018-12-05T14:39:47.308Z,5.10
2018-12-05T14:42:18.900Z,5.00
2018-12-05T14:44:49.768Z,5.00
2018-12-05T14:47:23.183Z,4.90
2018-12-05T14:49:54.616Z,4.80
2018-12-05T14:52:28.047Z,4.70
2018-12-05T14:54:58.988Z,4.60
2018-12-05T14:57:30.692Z,4.60
2018-12-05T15:00:01.892Z,4.60
2018-12-05T15:02:33.707Z,4.50
2018-12-05T15:05:08.307Z,4.40
2018-12-05T15:07:41.835Z,4.30
2018-12-05T15:15:17.627Z,4.20
2018-12-05T15:17:48.543Z,4.10
2018-12-05T15:20:19.663Z,4.20
2018-12-05T15:22:50.587Z,4.10
2018-12-05T15:25:22.348Z,4.10
2018-12-05T15:27:53.150Z,4.00
2018-12-05T15:30:25.284Z,3.90
2018-12-05T15:32:56.895Z,3.90
2018-12-05T15:35:28.567Z,4.00
2018-12-05T15:38:02.019Z,4.10
2018-12-05T15:40:33.439Z,4.00
2018-12-05T15:43:05.556Z,4.10
2018-12-05T15:45:37.111Z,4.10
2018-12-05T15:48:08.831Z,4.10
2018-12-05T15:50:40.695Z,4.10
2018-12-05T15:53:11.588Z,4.10
2018-12-05T15:55:42.496Z,4.20
2018-12-05T15:58:12.120Z,4.20
2018-12-05T16:00:42.900Z,4.20
2018-12-05T16:03:16.245Z,4.20
2018-12-05T16:05:47.490Z,4.20
2018-12-05T16:08:18.425Z,4.20
2018-12-05T16:10:49.991Z,4.20
2018-12-05T16:15:50.585Z,4.20
2018-12-05T16:18:24.512Z,4.20
2018-12-05T16:20:58.398Z,4.30
2018-12-05T16:26:33.880Z,4.20
2018-12-05T16:29:04.893Z,4.30
2018-12-05T16:34:40.179Z,4.30
2018-12-05T16:37:13.657Z,4.20
2018-12-05T16:39:44.840Z,4.30
2018-12-05T16:42:15.648Z,4.20
2018-12-05T16:44:46.455Z,4.20
2018-12-05T16:47:17.363Z,4.20
2018-12-05T16:49:48.156Z,4.20
2018-12-05T16:52:19.276Z,4.20
2018-12-05T16:54:54.057Z,4.10
2018-12-05T16:57:25.073Z,4.10
2018-12-05T16:59:56.016Z,4.10
2018-12-05T17:02:29.632Z,4.00
2018-12-05T17:05:04.381Z,4.00
2018-12-05T17:07:35.662Z,4.00
2018-12-05T17:10:09.319Z,4.00
2018-12-05T17:12:43.981Z,4.00
2018-12-05T17:17:46.604Z,3.90
2018-12-05T17:20:17.698Z,3.90
2018-12-05T17:22:49.412Z,3.90
2018-12-05T17:25:20.635Z,3.90
2018-12-05T17:27:52.159Z,3.90
2018-12-05T17:30:24.045Z,3.90
2018-12-05T17:32:55.787Z,3.90
2018-12-05T17:35:26.756Z,4.00
2018-12-05T17:38:01.803Z,4.00
2018-12-05T17:40:33.400Z,4.00
2018-12-05T17:43:05.212Z,4.00
2018-12-05T17:45:36.561Z,4.00
2018-12-05T17:48:07.929Z,4.00
2018-12-05T17:50:40.144Z,4.00
2018-12-05T17:53:11.483Z,4.00
2018-12-05T17:55:42.475Z,4.00
2018-12-05T17:58:14.280Z,4.00
2018-12-05T18:00:45.395Z,4.00
2018-12-05T18:03:17.397Z,4.00
2018-12-05T18:05:48.984Z,4.10
2018-12-05T18:08:20.020Z,4.00
2018-12-05T18:10:51.648Z,4.00
2018-12-05T18:13:23.342Z,4.00
2018-12-05T18:18:26.822Z,4.00
2018-12-05T18:20:58.603Z,4.00
2018-12-05T18:23:28.333Z,4.00
2018-12-05T18:26:00.130Z,4.00
2018-12-05T18:28:31.861Z,4.00
2018-12-05T18:31:02.933Z,4.00
2018-12-05T18:33:34.735Z,4.00
2018-12-05T18:36:08.196Z,4.00
2018-12-05T18:38:39.345Z,4.00
2018-12-05T18:41:11.109Z,4.00
2018-12-05T18:43:43.093Z,4.00
2018-12-05T18:46:14.747Z,4.00
2018-12-05T18:48:46.900Z,4.00
2018-12-05T18:51:18.515Z,4.00
2018-12-05T18:53:50.336Z,4.00
2018-12-05T18:56:21.333Z,4.00
2018-12-05T18:58:53.064Z,4.00
2018-12-05T19:01:24.142Z,4.00
2018-12-05T19:03:55.955Z,4.00
2018-12-05T19:06:26.815Z,4.10
2018-12-05T19:08:58.068Z,4.10
2018-12-05T19:11:29.288Z,4.10
2018-12-05T19:14:06.548Z,4.20
2018-12-05T19:16:38.216Z,4.20
2018-12-05T19:19:10.112Z,4.20
2018-12-05T19:21:41.879Z,4.20
2018-12-05T19:24:12.801Z,4.20
2018-12-05T19:26:43.551Z,4.20
2018-12-05T19:29:14.540Z,4.20
2018-12-05T19:31:45.435Z,4.20
2018-12-05T19:34:19.136Z,4.20
2018-12-05T19:36:50.376Z,4.20
2018-12-05T19:39:21.362Z,4.20
2018-12-05T19:41:54.688Z,4.20
2018-12-05T19:44:29.767Z,4.10
2018-12-05T19:47:01.209Z,4.20
2018-12-05T19:49:32.887Z,4.10
2018-12-05T19:52:04.031Z,4.20
2018-12-05T19:54:39.259Z,4.10
2018-12-05T19:57:10.795Z,4.10
2018-12-05T19:59:42.469Z,4.10
2018-12-05T20:02:14.187Z,4.10
2018-12-05T20:04:46.051Z,4.10
2018-12-05T20:07:20.433Z,4.20
2018-12-05T20:09:51.530Z,4.20
2018-12-05T20:12:22.543Z,4.20
2018-12-05T20:14:56.840Z,4.10
2018-12-05T20:17:28.071Z,4.10
2018-12-05T20:19:59.701Z,4.10
2018-12-05T20:22:30.852Z,4.10
2018-12-05T20:25:02.723Z,4.10
2018-12-05T20:27:34.413Z,4.10
2018-12-05T20:30:08.067Z,4.10
2018-12-05T20:32:41.503Z,4.10
2018-12-05T20:35:12.620Z,4.10
2018-12-05T20:37:43.962Z,4.10
2018-12-05T20:40:15.451Z,4.10
2018-12-05T20:42:47.152Z,4.10
2018-12-05T20:45:16.654Z,4.10
2018-12-05T20:47:47.552Z,4.10
2018-12-05T20:50:19.465Z,4.10
2018-12-05T20:52:49.215Z,4.20
2018-12-05T20:55:20.165Z,4.20
2018-12-05T20:57:51.840Z,4.10
2018-12-05T21:00:22.940Z,4.20
2018-12-05T21:02:53.685Z,4.20
2018-12-05T21:05:24.836Z,4.20
2018-12-05T21:07:56.396Z,4.20
2018-12-05T21:10:27.329Z,4.30
2018-12-05T21:12:59.119Z,4.30
2018-12-05T21:15:30.278Z,4.30
2018-12-05T21:23:03.259Z,4.40
2018-12-05T21:25:34.124Z,4.50
2018-12-05T21:28:06.191Z,4.50
2018-12-05T21:30:37.701Z,4.50
2018-12-05T21:33:09.347Z,4.50
2018-12-05T21:35:40.321Z,4.50
2018-12-05T21:38:11.179Z,4.50
2018-12-05T21:40:42.064Z,4.50
2018-12-05T21:43:13.017Z,4.50
2018-12-05T21:45:44.007Z,4.50
2018-12-05T21:48:15.721Z,4.50
2018-12-05T21:50:46.567Z,4.60
2018-12-05T21:53:18.144Z,4.60
2018-12-05T21:55:49.050Z,4.60
2018-12-05T21:58:22.427Z,4.60
2018-12-05T22:00:53.511Z,4.50
2018-12-05T22:03:24.927Z,4.60
2018-12-05T22:05:56.719Z,4.60
2018-12-05T22:08:30.215Z,4.50
2018-12-05T22:11:01.384Z,4.50
2018-12-05T22:13:32.280Z,4.50
2018-12-05T22:16:03.187Z,4.50
2018-12-05T22:18:34.091Z,4.50
2018-12-05T22:21:05.124Z,4.50
2018-12-05T22:23:39.016Z,4.50
2018-12-05T22:26:10.528Z,4.40
2018-12-05T22:28:42.241Z,4.40
2018-12-05T22:31:13.874Z,4.40
2018-12-05T22:33:45.247Z,4.30
2018-12-05T22:36:15.959Z,4.20
2018-12-05T22:38:47.828Z,4.20
2018-12-05T22:41:19.400Z,4.20
2018-12-05T22:43:50.491Z,4.20
2018-12-05T22:46:22.253Z,4.20
2018-12-05T22:48:53.064Z,4.20
2018-12-05T22:51:24.200Z,4.20
2018-12-05T22:53:55.055Z,4.30
2018-12-05T22:56:27.844Z,4.30
2018-12-05T22:58:59.483Z,4.30
2018-12-05T23:01:31.427Z,4.30
2018-12-05T23:04:03.711Z,4.30
2018-12-05T23:06:35.209Z,4.40
2018-12-05T23:09:06.373Z,4.40
2018-12-05T23:11:40.427Z,4.40
2018-12-05T23:14:14.335Z,4.50
2018-12-05T23:16:45.601Z,4.50
2018-12-05T23:19:17.503Z,4.50
2018-12-05T23:21:49.215Z,4.60
2018-12-05T23:26:51.763Z,4.60
2018-12-05T23:29:21.546Z,4.60
2018-12-05T23:31:53.301Z,4.60
2018-12-05T23:34:24.943Z,4.60
2018-12-05T23:36:59.086Z,4.60
2018-12-05T23:39:28.539Z,4.60
2018-12-05T23:42:00.164Z,4.60
2018-12-05T23:44:31.057Z,4.60
2018-12-05T23:47:02.383Z,4.60
2018-12-05T23:49:34.039Z,4.60
2018-12-05T23:52:08.197Z,4.60
2018-12-05T23:54:39.379Z,4.60
2018-12-05T23:57:11.183Z,4.60
2018-12-05T23:59:43.004Z,4.60
